Terminal Aerodrome Forecast
Issued by NWS Binghamton, NY

Home | Current Version | Previous Version | Text Only | Print | Product List | Glossary On
Versions: 1 2 3 4 5 6 7 8 9 10 11 12 13 14 15 16 17
000
FTUS41 KBGM 182337
TAFBGM
TAF
KBGM 182337Z 1900/1924 35008G16KT P6SM SKC
     FM190300 02007KT P6SM SKC
     FM191200 11007KT P6SM FEW250
     FM191800 14010KT P6SM BKN250=

USA.gov is the U.S. government's official web portal to all federal, state and local government web resources and services.